createdAt,value
2019-04-16T00:02:02.448Z,6.17
2019-04-16T00:07:24.039Z,5.99
2019-04-16T00:12:45.926Z,5.69
2019-04-16T00:17:49.595Z,5.89
2019-04-16T00:22:57.694Z,5.94
2019-04-16T00:28:01.254Z,5.87
2019-04-16T00:33:07.515Z,5.73
2019-04-16T00:38:10.178Z,5.47
2019-04-16T00:43:13.977Z,5.62
2019-04-16T00:48:17.524Z,5.68
2019-04-16T00:53:21.137Z,5.41
2019-04-16T00:58:24.917Z,5.66
2019-04-16T01:03:28.488Z,5.43
2019-04-16T01:08:32.524Z,5.45
2019-04-16T01:13:36.139Z,5.22
2019-04-16T01:18:40.022Z,5.30
2019-04-16T01:23:48.430Z,5.15
2019-04-16T01:28:50.504Z,5.11
2019-04-16T01:33:58.635Z,5.20
2019-04-16T01:39:16.003Z,5.20
2019-04-16T01:44:09.455Z,4.75
2019-04-16T01:49:13.022Z,4.94
2019-04-16T01:54:16.634Z,4.71
2019-04-16T01:59:20.223Z,4.61
2019-04-16T02:04:23.958Z,4.69
2019-04-16T02:09:27.486Z,4.74
2019-04-16T02:14:31.075Z,4.71
2019-04-16T02:19:36.126Z,4.70
2019-04-16T02:24:39.715Z,4.55
2019-04-16T02:29:43.298Z,4.37
2019-04-16T02:34:46.875Z,4.38
2019-04-16T02:39:50.496Z,4.29
2019-04-16T02:44:54.082Z,4.20
2019-04-16T02:49:58.615Z,4.05
2019-04-16T02:55:09.571Z,3.98
2019-04-16T03:00:17.585Z,4.09
2019-04-16T03:05:20.541Z,4.17
2019-04-16T03:10:24.162Z,4.19
2019-04-16T03:15:45.788Z,3.94
2019-04-16T03:20:52.482Z,3.63
2019-04-16T03:25:55.601Z,3.76
2019-04-16T03:30:59.199Z,3.68
2019-04-16T03:36:02.801Z,3.58
2019-04-16T03:41:06.386Z,3.47
2019-04-16T03:46:12.767Z,3.36
2019-04-16T03:51:15.299Z,3.40
2019-04-16T03:56:18.888Z,3.34
2019-04-16T04:01:22.558Z,3.12
2019-04-16T04:06:26.540Z,3.25
2019-04-16T04:11:30.149Z,3.27
2019-04-16T04:16:34.478Z,3.47
2019-04-16T04:21:38.121Z,3.57
2019-04-16T04:26:42.431Z,3.34
2019-04-16T04:31:46.371Z,3.57
2019-04-16T04:36:49.928Z,3.35
2019-04-16T04:41:56.542Z,3.66
2019-04-16T04:46:58.836Z,3.50
2019-04-16T04:52:02.442Z,3.77
2019-04-16T04:57:06.003Z,3.88
2019-04-16T05:02:10.545Z,4.08
2019-04-16T05:07:16.497Z,4.18
2019-04-16T05:12:21.311Z,4.10
2019-04-16T05:17:26.946Z,4.57
2019-04-16T05:22:32.953Z,4.93
2019-04-16T05:27:40.121Z,4.87
2019-04-16T05:32:41.154Z,4.87
2019-04-16T05:37:44.703Z,9.09
2019-04-16T05:42:48.290Z,11.36
2019-04-16T05:47:51.905Z,14.75
2019-04-16T05:52:55.504Z,13.74
2019-04-16T05:57:59.383Z,14.60
2019-04-16T06:03:03.031Z,16.57
2019-04-16T06:08:10.520Z,16.49
2019-04-16T06:13:31.078Z,17.07
2019-04-16T06:18:42.498Z,17.80
2019-04-16T06:23:48.366Z,18.88
2019-04-16T06:29:00.143Z,19.73
2019-04-16T06:34:09.571Z,19.43
2019-04-16T06:39:31.189Z,20.16
2019-04-16T06:44:36.354Z,18.69
2019-04-16T06:49:50.955Z,20.77
2019-04-16T06:54:54.379Z,19.27
2019-04-16T07:00:03.523Z,19.24
2019-04-16T07:05:09.523Z,19.33
2019-04-16T07:10:14.669Z,19.90
2019-04-16T07:15:22.793Z,16.85
2019-04-16T07:20:23.932Z,20.44
2019-04-16T07:25:29.300Z,20.94
2019-04-16T07:30:38.483Z,16.50
2019-04-16T07:35:41.326Z,19.07
2019-04-16T07:40:58.817Z,18.11
2019-04-16T07:46:20.259Z,15.27
2019-04-16T07:51:35.766Z,15.18
2019-04-16T07:56:37.853Z,15.30
2019-04-16T08:01:44.065Z,17.43
2019-04-16T08:06:47.401Z,18.53
2019-04-16T08:11:51.127Z,17.09
2019-04-16T08:16:54.689Z,19.70
2019-04-16T08:21:58.399Z,18.33
2019-04-16T08:27:02.298Z,15.86
2019-04-16T08:32:06.003Z,16.64
2019-04-16T08:37:09.588Z,17.04
2019-04-16T08:42:13.199Z,17.49
2019-04-16T08:47:16.771Z,16.40
2019-04-16T08:52:20.345Z,16.85
2019-04-16T08:57:23.964Z,16.45
2019-04-16T09:02:28.043Z,15.86
2019-04-16T09:07:41.041Z,15.08
2019-04-16T09:12:50.791Z,16.44
2019-04-16T09:17:51.266Z,16.52
2019-04-16T09:22:54.829Z,15.72
2019-04-16T09:28:17.658Z,16.19
2019-04-16T09:33:14.588Z,17.00
2019-04-16T09:38:19.727Z,16.56
2019-04-16T09:43:24.955Z,16.73
2019-04-16T09:48:28.489Z,16.80
2019-04-16T09:53:34.034Z,15.69
2019-04-16T09:58:38.068Z,15.84
2019-04-16T10:03:44.284Z,16.06
2019-04-16T10:08:47.908Z,16.29
2019-04-16T10:13:51.536Z,15.14
2019-04-16T10:18:55.128Z,15.79
2019-04-16T10:24:09.302Z,16.22
2019-04-16T10:29:14.473Z,15.21
2019-04-16T10:34:18.511Z,15.14
2019-04-16T10:39:23.974Z,14.54
2019-04-16T10:44:44.587Z,15.02
2019-04-16T10:49:55.703Z,15.37
2019-04-16T10:55:00.904Z,14.76
2019-04-16T11:00:26.709Z,15.31
2019-04-16T11:05:47.215Z,14.41
2019-04-16T11:10:51.068Z,14.22
2019-04-16T11:15:56.406Z,14.88
2019-04-16T11:21:00.387Z,15.09
2019-04-16T11:26:06.214Z,14.75
2019-04-16T11:31:11.417Z,15.20
2019-04-16T11:36:19.846Z,15.02
2019-04-16T11:41:20.344Z,14.79
2019-04-16T11:46:24.274Z,14.84
2019-04-16T11:51:27.828Z,14.46
2019-04-16T11:56:31.508Z,14.24
2019-04-16T12:01:39.455Z,15.36
2019-04-16T12:06:47.600Z,15.53
2019-04-16T12:11:55.364Z,15.15
2019-04-16T12:17:00.493Z,14.86
2019-04-16T12:22:17.814Z,14.76
2019-04-16T12:27:35.542Z,14.45
2019-04-16T12:32:43.760Z,15.44
2019-04-16T12:38:05.291Z,15.41
2019-04-16T12:43:14.732Z,15.30
2019-04-16T12:48:17.582Z,14.76
2019-04-16T12:53:22.981Z,15.46
2019-04-16T12:58:31.212Z,15.55
2019-04-16T13:03:36.482Z,15.24
2019-04-16T13:08:56.722Z,15.52
2019-04-16T13:14:01.863Z,14.97
2019-04-16T13:19:07.065Z,15.30
2019-04-16T13:24:12.228Z,14.81
2019-04-16T13:29:17.455Z,15.15
2019-04-16T13:34:21.189Z,15.63
2019-04-16T13:39:26.317Z,15.49
2019-04-16T13:44:37.617Z,15.39
2019-04-16T13:49:44.708Z,15.45
2019-04-16T13:55:09.903Z,15.31
2019-04-16T14:00:16.248Z,15.30
2019-04-16T14:05:19.879Z,14.98
2019-04-16T14:10:24.025Z,15.27
2019-04-16T14:15:32.368Z,15.37
2019-04-16T14:20:35.027Z,15.20
2019-04-16T14:25:38.656Z,15.11
2019-04-16T14:30:43.851Z,15.45
2019-04-16T14:35:47.792Z,15.57
2019-04-16T14:40:51.672Z,15.17
2019-04-16T14:45:59.782Z,15.54
2019-04-16T14:51:02.141Z,15.27
2019-04-16T14:56:07.285Z,15.30
2019-04-16T15:01:18.464Z,15.47
2019-04-16T15:06:26.424Z,15.27
2019-04-16T15:11:34.558Z,15.53
2019-04-16T15:16:39.907Z,15.42
2019-04-16T15:21:48.161Z,15.37
2019-04-16T15:26:53.541Z,15.07
2019-04-16T15:32:16.912Z,14.94
2019-04-16T15:37:25.687Z,15.26
2019-04-16T15:42:48.146Z,15.20
2019-04-16T15:47:59.505Z,15.02
2019-04-16T15:53:04.948Z,15.13
2019-04-16T15:58:26.488Z,14.95
2019-04-16T16:03:31.622Z,14.98
2019-04-16T16:08:45.817Z,14.96
2019-04-16T16:13:49.436Z,14.84
2019-04-16T16:18:53.132Z,14.79
2019-04-16T16:23:56.842Z,14.67
2019-04-16T16:29:00.583Z,14.64
2019-04-16T16:34:08.517Z,14.39
2019-04-16T16:39:10.634Z,14.35
2019-04-16T16:44:14.520Z,14.21
2019-04-16T16:49:18.618Z,14.18
2019-04-16T16:54:23.800Z,14.07
2019-04-16T16:59:29.272Z,13.96
2019-04-16T17:04:34.401Z,13.91
2019-04-16T17:09:38.080Z,13.83
2019-04-16T17:14:41.747Z,13.78
2019-04-16T17:19:45.325Z,13.65
2019-04-16T17:24:49.182Z,13.57
2019-04-16T17:29:52.869Z,13.46
2019-04-16T17:34:56.650Z,13.29
2019-04-16T17:40:02.093Z,13.18
2019-04-16T17:45:24.505Z,13.03
2019-04-16T17:50:33.041Z,12.89
2019-04-16T17:55:47.257Z,12.77
2019-04-16T18:01:01.835Z,12.59
2019-04-16T18:06:10.208Z,12.47
2019-04-16T18:11:27.828Z,12.59
2019-04-16T18:16:33.039Z,12.41
2019-04-16T18:21:38.260Z,12.25
2019-04-16T18:26:59.903Z,12.04
2019-04-16T18:32:05.089Z,11.90
2019-04-16T18:37:28.526Z,11.79
2019-04-16T18:42:50.683Z,11.62
2019-04-16T18:48:04.857Z,11.50
2019-04-16T18:53:02.975Z,11.39
2019-04-16T18:58:07.811Z,11.28
2019-04-16T19:03:15.794Z,11.11
2019-04-16T19:08:20.049Z,11.11
2019-04-16T19:13:25.899Z,10.97
2019-04-16T19:18:30.494Z,10.79
2019-04-16T19:23:35.169Z,10.73
2019-04-16T19:28:40.378Z,10.55
2019-04-16T19:33:45.288Z,10.42
2019-04-16T19:38:50.037Z,10.38
2019-04-16T19:43:53.848Z,10.39
2019-04-16T19:49:00.435Z,10.24
2019-04-16T19:54:02.705Z,10.13
2019-04-16T19:59:06.410Z,10.04
2019-04-16T20:04:11.009Z,9.87
2019-04-16T20:09:14.791Z,9.75
2019-04-16T20:14:18.400Z,9.73
2019-04-16T20:19:21.975Z,9.57
2019-04-16T20:24:25.545Z,9.50
2019-04-16T20:29:29.153Z,9.51
2019-04-16T20:39:54.228Z,9.29
2019-04-16T20:44:57.796Z,9.26
2019-04-16T20:50:04.216Z,9.27
2019-04-16T20:55:08.923Z,9.08
2019-04-16T21:00:14.111Z,9.25
2019-04-16T21:05:22.455Z,8.94
2019-04-16T21:10:23.191Z,8.82
2019-04-16T21:15:27.409Z,8.86
2019-04-16T21:20:32.047Z,8.80
2019-04-16T21:25:35.666Z,8.63
2019-04-16T21:30:42.884Z,8.50
2019-04-16T21:35:55.740Z,8.50
2019-04-16T21:40:59.654Z,8.48
2019-04-16T21:46:03.376Z,8.43
2019-04-16T21:51:07.707Z,8.31
2019-04-16T21:56:11.397Z,8.14
2019-04-16T22:01:32.786Z,8.18
2019-04-16T22:06:36.983Z,8.04
2019-04-16T22:11:43.535Z,7.92
2019-04-16T22:16:45.925Z,7.82
2019-04-16T22:21:49.650Z,7.81
2019-04-16T22:26:53.839Z,7.56
2019-04-16T22:31:58.257Z,7.57
2019-04-16T22:37:02.765Z,7.54
2019-04-16T22:42:08.048Z,7.53
2019-04-16T22:47:15.988Z,7.37
2019-04-16T22:52:19.587Z,7.36
2019-04-16T22:57:23.172Z,7.31
2019-04-16T23:02:28.319Z,7.38
2019-04-16T23:07:31.976Z,7.42
2019-04-16T23:12:35.929Z,7.10
2019-04-16T23:17:39.542Z,7.02
2019-04-16T23:22:43.632Z,7.16
2019-04-16T23:27:47.024Z,7.12
2019-04-16T23:32:49.989Z,7.04
2019-04-16T23:37:58.076Z,7.05
2019-04-16T23:42:59.052Z,7.19
2019-04-16T23:48:20.208Z,7.09
2019-04-16T23:53:24.690Z,7.01
2019-04-16T23:58:29.869Z,7.31
